LIPK/FRL METAR and TAF weather

Enter ICAO airport designator
Station Type Date Time Source
LIPK METAR 2019/11/18 10:50 UTC NOAA

LIPK 181050Z VRB02KT 9999 FEW045 13/07 Q1013


Station Type Date Time Source
LIPK Decoded METAR 2019/11/18 10:50 UTC NOAA

Forli, Italy (LIPK) 44-12N 012-04E 32M
Nov 18, 2019 - 05:50 AM EST / 2019.11.18 1050 UTC
Wind: Variable at 2 MPH (2 KT):0
Visibility: greater than 7 mile(s):0
Sky conditions: mostly clear
Temperature: 55 F (13 C)
Dew Point: 44 F (7 C)
Relative Humidity: 66%
Pressure (altimeter): 29.91 in. Hg (1013 hPa)
ob: LIPK 181050Z VRB02KT 9999 FEW045 13/07 Q1013
cycle: 11

Station Type Date Time Source
LIPK TAF 2015/04/01 12:08 UTC NOAA

TAF LIPK 011301Z 0112/0212 30020G32KT CAVOK
BECMG 0115/0117 30012KT
BECMG 0117/0119 VRB05KT

Example: see airport list